sensor_id;sensor_type;location;lat;lon;timestamp;P1;durP1;ratioP1;P2;durP2;ratioP2
68192;SDS011;55012;47.562;18.414;2023-07-31T00:01:10;15.60;;;9.57;;
68192;SDS011;55012;47.562;18.414;2023-07-31T00:03:35;12.35;;;8.63;;
68192;SDS011;55012;47.562;18.414;2023-07-31T00:06:01;12.82;;;8.80;;
68192;SDS011;55012;47.562;18.414;2023-07-31T00:08:26;16.80;;;8.70;;
68192;SDS011;55012;47.562;18.414;2023-07-31T00:10:52;12.55;;;9.38;;
68192;SDS011;55012;47.562;18.414;2023-07-31T00:13:17;13.52;;;9.27;;
68192;SDS011;55012;47.562;18.414;2023-07-31T00:15:43;11.50;;;9.30;;
68192;SDS011;55012;47.562;18.414;2023-07-31T00:18:09;12.75;;;9.63;;
68192;SDS011;55012;47.562;18.414;2023-07-31T00:20:34;14.98;;;9.93;;
68192;SDS011;55012;47.562;18.414;2023-07-31T00:22:59;13.07;;;9.48;;
68192;SDS011;55012;47.562;18.414;2023-07-31T00:25:25;13.07;;;9.70;;
68192;SDS011;55012;47.562;18.414;2023-07-31T00:27:50;13.38;;;8.38;;
68192;SDS011;55012;47.562;18.414;2023-07-31T00:30:16;11.68;;;7.65;;
68192;SDS011;55012;47.562;18.414;2023-07-31T00:32:41;9.55;;;6.85;;
68192;SDS011;55012;47.562;18.414;2023-07-31T00:35:07;8.85;;;6.85;;
68192;SDS011;55012;47.562;18.414;2023-07-31T00:37:32;8.77;;;6.13;;
68192;SDS011;55012;47.562;18.414;2023-07-31T00:39:58;11.32;;;6.93;;
68192;SDS011;55012;47.562;18.414;2023-07-31T00:42:24;6.45;;;4.40;;
68192;SDS011;55012;47.562;18.414;2023-07-31T00:44:49;7.90;;;5.07;;
68192;SDS011;55012;47.562;18.414;2023-07-31T00:47:15;7.05;;;5.35;;
68192;SDS011;55012;47.562;18.414;2023-07-31T00:49:40;8.57;;;6.20;;
68192;SDS011;55012;47.562;18.414;2023-07-31T00:52:06;9.48;;;6.57;;
68192;SDS011;55012;47.562;18.414;2023-07-31T00:54:32;9.30;;;6.22;;
68192;SDS011;55012;47.562;18.414;2023-07-31T00:56:58;10.10;;;6.03;;
68192;SDS011;55012;47.562;18.414;2023-07-31T00:59:25;9.98;;;6.47;;
68192;SDS011;55012;47.562;18.414;2023-07-31T01:01:50;10.05;;;6.28;;
68192;SDS011;55012;47.562;18.414;2023-07-31T01:04:16;10.38;;;7.13;;
68192;SDS011;55012;47.562;18.414;2023-07-31T01:06:44;11.02;;;7.18;;
68192;SDS011;55012;47.562;18.414;2023-07-31T01:12:15;7.45;;;4.75;;
68192;SDS011;55012;47.562;18.414;2023-07-31T01:17:25;7.05;;;4.85;;
68192;SDS011;55012;47.562;18.414;2023-07-31T01:19:51;6.22;;;4.00;;
68192;SDS011;55012;47.562;18.414;2023-07-31T01:28:13;5.28;;;4.05;;
68192;SDS011;55012;47.562;18.414;2023-07-31T01:30:41;5.47;;;3.65;;
68192;SDS011;55012;47.562;18.414;2023-07-31T01:33:09;6.53;;;4.40;;
68192;SDS011;55012;47.562;18.414;2023-07-31T01:35:36;6.85;;;4.70;;
68192;SDS011;55012;47.562;18.414;2023-07-31T01:38:03;7.05;;;4.90;;
68192;SDS011;55012;47.562;18.414;2023-07-31T01:40:30;8.27;;;4.68;;
68192;SDS011;55012;47.562;18.414;2023-07-31T01:42:55;8.27;;;5.18;;
68192;SDS011;55012;47.562;18.414;2023-07-31T01:45:21;6.43;;;4.78;;
68192;SDS011;55012;47.562;18.414;2023-07-31T01:47:46;7.78;;;4.50;;
68192;SDS011;55012;47.562;18.414;2023-07-31T01:50:11;5.88;;;3.55;;
68192;SDS011;55012;47.562;18.414;2023-07-31T01:52:37;4.35;;;3.40;;
68192;SDS011;55012;47.562;18.414;2023-07-31T01:55:03;4.30;;;3.47;;
68192;SDS011;55012;47.562;18.414;2023-07-31T01:57:28;5.15;;;3.40;;
68192;SDS011;55012;47.562;18.414;2023-07-31T01:59:54;6.15;;;4.20;;
68192;SDS011;55012;47.562;18.414;2023-07-31T02:02:20;4.22;;;2.80;;
68192;SDS011;55012;47.562;18.414;2023-07-31T02:04:45;7.05;;;3.40;;
68192;SDS011;55012;47.562;18.414;2023-07-31T02:07:11;3.63;;;2.70;;
68192;SDS011;55012;47.562;18.414;2023-07-31T02:09:37;4.88;;;2.80;;
68192;SDS011;55012;47.562;18.414;2023-07-31T02:12:02;7.47;;;3.55;;
68192;SDS011;55012;47.562;18.414;2023-07-31T02:14:28;4.53;;;2.70;;
68192;SDS011;55012;47.562;18.414;2023-07-31T02:16:53;5.75;;;3.60;;
68192;SDS011;55012;47.562;18.414;2023-07-31T02:19:19;4.03;;;2.90;;
68192;SDS011;55012;47.562;18.414;2023-07-31T02:21:45;4.28;;;2.90;;
68192;SDS011;55012;47.562;18.414;2023-07-31T02:24:10;4.00;;;2.63;;
68192;SDS011;55012;47.562;18.414;2023-07-31T02:26:35;4.97;;;2.63;;
68192;SDS011;55012;47.562;18.414;2023-07-31T02:29:01;4.50;;;2.92;;
68192;SDS011;55012;47.562;18.414;2023-07-31T02:31:26;4.40;;;2.80;;
68192;SDS011;55012;47.562;18.414;2023-07-31T02:33:52;5.82;;;2.58;;
68192;SDS011;55012;47.562;18.414;2023-07-31T02:36:17;5.10;;;3.05;;
68192;SDS011;55012;47.562;18.414;2023-07-31T02:38:43;5.20;;;3.40;;
68192;SDS011;55012;47.562;18.414;2023-07-31T02:41:08;5.05;;;3.58;;
68192;SDS011;55012;47.562;18.414;2023-07-31T02:43:34;7.93;;;4.07;;
68192;SDS011;55012;47.562;18.414;2023-07-31T02:45:59;6.70;;;3.75;;
68192;SDS011;55012;47.562;18.414;2023-07-31T02:48:24;6.72;;;3.75;;
68192;SDS011;55012;47.562;18.414;2023-07-31T02:50:50;5.93;;;3.85;;
68192;SDS011;55012;47.562;18.414;2023-07-31T02:53:15;7.60;;;3.78;;
68192;SDS011;55012;47.562;18.414;2023-07-31T02:55:41;5.47;;;3.00;;
68192;SDS011;55012;47.562;18.414;2023-07-31T02:58:06;3.88;;;2.83;;
68192;SDS011;55012;47.562;18.414;2023-07-31T03:00:32;8.48;;;3.08;;
68192;SDS011;55012;47.562;18.414;2023-07-31T03:02:57;5.97;;;4.00;;
68192;SDS011;55012;47.562;18.414;2023-07-31T03:05:22;8.60;;;4.05;;
68192;SDS011;55012;47.562;18.414;2023-07-31T03:07:48;6.35;;;4.00;;
68192;SDS011;55012;47.562;18.414;2023-07-31T03:10:13;5.78;;;4.28;;
68192;SDS011;55012;47.562;18.414;2023-07-31T03:12:39;8.48;;;4.68;;
68192;SDS011;55012;47.562;18.414;2023-07-31T03:15:05;4.93;;;2.65;;
68192;SDS011;55012;47.562;18.414;2023-07-31T03:17:31;5.28;;;2.75;;
68192;SDS011;55012;47.562;18.414;2023-07-31T03:19:56;4.95;;;2.72;;
68192;SDS011;55012;47.562;18.414;2023-07-31T03:22:22;6.55;;;3.47;;
68192;SDS011;55012;47.562;18.414;2023-07-31T03:24:47;4.72;;;2.80;;
68192;SDS011;55012;47.562;18.414;2023-07-31T03:27:13;3.50;;;2.60;;
68192;SDS011;55012;47.562;18.414;2023-07-31T03:29:38;4.25;;;2.50;;
68192;SDS011;55012;47.562;18.414;2023-07-31T03:32:04;5.05;;;2.60;;
68192;SDS011;55012;47.562;18.414;2023-07-31T03:34:30;3.10;;;2.38;;
68192;SDS011;55012;47.562;18.414;2023-07-31T03:36:57;4.15;;;2.33;;
68192;SDS011;55012;47.562;18.414;2023-07-31T03:39:23;3.25;;;2.10;;
68192;SDS011;55012;47.562;18.414;2023-07-31T03:41:48;4.10;;;2.00;;
68192;SDS011;55012;47.562;18.414;2023-07-31T03:44:13;3.95;;;2.47;;
68192;SDS011;55012;47.562;18.414;2023-07-31T03:46:39;3.85;;;2.40;;
68192;SDS011;55012;47.562;18.414;2023-07-31T03:49:04;3.70;;;2.65;;
68192;SDS011;55012;47.562;18.414;2023-07-31T03:51:30;6.45;;;3.08;;
68192;SDS011;55012;47.562;18.414;2023-07-31T03:53:55;5.13;;;3.20;;
68192;SDS011;55012;47.562;18.414;2023-07-31T03:56:20;5.85;;;2.83;;
68192;SDS011;55012;47.562;18.414;2023-07-31T03:58:46;5.57;;;2.92;;
68192;SDS011;55012;47.562;18.414;2023-07-31T04:01:11;4.43;;;2.63;;
68192;SDS011;55012;47.562;18.414;2023-07-31T04:03:37;4.43;;;2.40;;
68192;SDS011;55012;47.562;18.414;2023-07-31T04:06:02;4.90;;;3.25;;
68192;SDS011;55012;47.562;18.414;2023-07-31T04:08:27;4.97;;;3.47;;
68192;SDS011;55012;47.562;18.414;2023-07-31T04:10:53;6.03;;;3.30;;
68192;SDS011;55012;47.562;18.414;2023-07-31T04:13:18;6.05;;;3.60;;
68192;SDS011;55012;47.562;18.414;2023-07-31T04:15:50;3.92;;;2.63;;
68192;SDS011;55012;47.562;18.414;2023-07-31T04:18:16;4.45;;;2.55;;
68192;SDS011;55012;47.562;18.414;2023-07-31T04:20:41;4.15;;;2.75;;
68192;SDS011;55012;47.562;18.414;2023-07-31T04:23:07;4.70;;;2.92;;
68192;SDS011;55012;47.562;18.414;2023-07-31T04:25:32;5.22;;;2.80;;
68192;SDS011;55012;47.562;18.414;2023-07-31T04:27:59;5.82;;;2.70;;
68192;SDS011;55012;47.562;18.414;2023-07-31T04:30:25;6.13;;;2.80;;
68192;SDS011;55012;47.562;18.414;2023-07-31T04:32:51;4.10;;;2.50;;
68192;SDS011;55012;47.562;18.414;2023-07-31T04:35:16;3.80;;;2.70;;
68192;SDS011;55012;47.562;18.414;2023-07-31T04:37:42;4.93;;;3.47;;
68192;SDS011;55012;47.562;18.414;2023-07-31T04:40:07;7.53;;;2.70;;
68192;SDS011;55012;47.562;18.414;2023-07-31T04:42:33;7.35;;;3.15;;
68192;SDS011;55012;47.562;18.414;2023-07-31T04:44:59;4.43;;;3.10;;
68192;SDS011;55012;47.562;18.414;2023-07-31T04:47:25;6.75;;;3.72;;
68192;SDS011;55012;47.562;18.414;2023-07-31T04:49:50;5.45;;;2.60;;
68192;SDS011;55012;47.562;18.414;2023-07-31T04:52:16;6.05;;;3.13;;
68192;SDS011;55012;47.562;18.414;2023-07-31T04:54:41;4.05;;;2.60;;
68192;SDS011;55012;47.562;18.414;2023-07-31T04:57:06;4.55;;;3.05;;
68192;SDS011;55012;47.562;18.414;2023-07-31T04:59:32;4.90;;;3.00;;
68192;SDS011;55012;47.562;18.414;2023-07-31T05:01:57;5.55;;;3.67;;
68192;SDS011;55012;47.562;18.414;2023-07-31T05:04:23;4.70;;;2.80;;
68192;SDS011;55012;47.562;18.414;2023-07-31T05:06:48;3.70;;;2.90;;
68192;SDS011;55012;47.562;18.414;2023-07-31T05:09:14;4.88;;;3.10;;
68192;SDS011;55012;47.562;18.414;2023-07-31T05:11:39;5.47;;;3.60;;
68192;SDS011;55012;47.562;18.414;2023-07-31T05:14:07;4.85;;;2.90;;
68192;SDS011;55012;47.562;18.414;2023-07-31T05:16:33;5.80;;;3.22;;
68192;SDS011;55012;47.562;18.414;2023-07-31T05:18:58;4.78;;;3.30;;
68192;SDS011;55012;47.562;18.414;2023-07-31T05:21:24;4.15;;;3.30;;
68192;SDS011;55012;47.562;18.414;2023-07-31T05:23:49;5.82;;;3.35;;
68192;SDS011;55012;47.562;18.414;2023-07-31T05:26:15;6.88;;;3.45;;
68192;SDS011;55012;47.562;18.414;2023-07-31T05:28:40;4.30;;;3.15;;
68192;SDS011;55012;47.562;18.414;2023-07-31T05:31:06;5.82;;;3.30;;
68192;SDS011;55012;47.562;18.414;2023-07-31T05:33:32;3.80;;;2.95;;
68192;SDS011;55012;47.562;18.414;2023-07-31T05:35:58;3.00;;;2.35;;
68192;SDS011;55012;47.562;18.414;2023-07-31T05:38:23;5.15;;;3.00;;
68192;SDS011;55012;47.562;18.414;2023-07-31T05:40:49;5.35;;;2.38;;
68192;SDS011;55012;47.562;18.414;2023-07-31T05:43:14;5.97;;;2.60;;
68192;SDS011;55012;47.562;18.414;2023-07-31T05:45:41;3.47;;;2.35;;
68192;SDS011;55012;47.562;18.414;2023-07-31T05:48:07;5.18;;;2.50;;
68192;SDS011;55012;47.562;18.414;2023-07-31T05:50:32;5.57;;;2.75;;
68192;SDS011;55012;47.562;18.414;2023-07-31T05:52:58;6.38;;;2.90;;
68192;SDS011;55012;47.562;18.414;2023-07-31T05:55:23;3.55;;;2.90;;
68192;SDS011;55012;47.562;18.414;2023-07-31T05:57:51;7.15;;;2.83;;
68192;SDS011;55012;47.562;18.414;2023-07-31T06:00:17;4.07;;;2.53;;
68192;SDS011;55012;47.562;18.414;2023-07-31T06:02:43;5.95;;;2.70;;
68192;SDS011;55012;47.562;18.414;2023-07-31T06:05:08;3.72;;;2.58;;
68192;SDS011;55012;47.562;18.414;2023-07-31T06:07:34;3.90;;;2.35;;
68192;SDS011;55012;47.562;18.414;2023-07-31T06:09:59;3.75;;;2.28;;
68192;SDS011;55012;47.562;18.414;2023-07-31T06:12:30;4.63;;;2.90;;
68192;SDS011;55012;47.562;18.414;2023-07-31T06:14:58;6.25;;;2.78;;
68192;SDS011;55012;47.562;18.414;2023-07-31T06:17:24;4.07;;;2.60;;
68192;SDS011;55012;47.562;18.414;2023-07-31T06:19:49;4.75;;;2.67;;
68192;SDS011;55012;47.562;18.414;2023-07-31T06:22:16;5.32;;;2.70;;
68192;SDS011;55012;47.562;18.414;2023-07-31T06:24:41;5.15;;;2.60;;
68192;SDS011;55012;47.562;18.414;2023-07-31T06:27:06;7.18;;;2.40;;
68192;SDS011;55012;47.562;18.414;2023-07-31T06:29:32;6.53;;;2.70;;
68192;SDS011;55012;47.562;18.414;2023-07-31T06:31:58;5.22;;;2.60;;
68192;SDS011;55012;47.562;18.414;2023-07-31T06:34:23;5.45;;;2.70;;
68192;SDS011;55012;47.562;18.414;2023-07-31T06:36:49;3.38;;;2.40;;
68192;SDS011;55012;47.562;18.414;2023-07-31T06:39:14;4.20;;;2.17;;
68192;SDS011;55012;47.562;18.414;2023-07-31T06:41:40;3.97;;;2.30;;
68192;SDS011;55012;47.562;18.414;2023-07-31T06:44:05;4.40;;;2.17;;
68192;SDS011;55012;47.562;18.414;2023-07-31T06:46:31;9.20;;;2.20;;
68192;SDS011;55012;47.562;18.414;2023-07-31T06:48:56;3.55;;;2.47;;
68192;SDS011;55012;47.562;18.414;2023-07-31T06:51:21;3.78;;;2.15;;
68192;SDS011;55012;47.562;18.414;2023-07-31T06:53:47;4.30;;;2.42;;
68192;SDS011;55012;47.562;18.414;2023-07-31T06:56:12;3.60;;;2.28;;
68192;SDS011;55012;47.562;18.414;2023-07-31T06:58:38;3.72;;;2.25;;
68192;SDS011;55012;47.562;18.414;2023-07-31T07:01:04;5.45;;;2.33;;
68192;SDS011;55012;47.562;18.414;2023-07-31T07:03:29;4.03;;;2.35;;
68192;SDS011;55012;47.562;18.414;2023-07-31T07:05:55;4.07;;;2.30;;
68192;SDS011;55012;47.562;18.414;2023-07-31T07:08:21;3.10;;;2.20;;
68192;SDS011;55012;47.562;18.414;2023-07-31T07:10:46;4.63;;;2.35;;
68192;SDS011;55012;47.562;18.414;2023-07-31T07:13:12;3.78;;;2.22;;
68192;SDS011;55012;47.562;18.414;2023-07-31T07:15:38;3.15;;;2.20;;
68192;SDS011;55012;47.562;18.414;2023-07-31T07:18:04;3.65;;;2.20;;
68192;SDS011;55012;47.562;18.414;2023-07-31T07:20:29;4.03;;;2.28;;
68192;SDS011;55012;47.562;18.414;2023-07-31T07:22:55;3.42;;;2.20;;
68192;SDS011;55012;47.562;18.414;2023-07-31T07:25:20;6.93;;;2.60;;
68192;SDS011;55012;47.562;18.414;2023-07-31T07:27:46;3.90;;;2.03;;
68192;SDS011;55012;47.562;18.414;2023-07-31T07:30:11;3.33;;;1.90;;
68192;SDS011;55012;47.562;18.414;2023-07-31T07:32:36;6.80;;;2.40;;
68192;SDS011;55012;47.562;18.414;2023-07-31T07:35:02;4.95;;;2.00;;
68192;SDS011;55012;47.562;18.414;2023-07-31T07:37:27;5.50;;;2.30;;
68192;SDS011;55012;47.562;18.414;2023-07-31T07:39:53;5.53;;;2.05;;
68192;SDS011;55012;47.562;18.414;2023-07-31T07:42:18;4.68;;;2.00;;
68192;SDS011;55012;47.562;18.414;2023-07-31T07:44:44;4.47;;;2.10;;
68192;SDS011;55012;47.562;18.414;2023-07-31T07:47:09;3.90;;;2.03;;
68192;SDS011;55012;47.562;18.414;2023-07-31T07:49:35;5.53;;;2.53;;
68192;SDS011;55012;47.562;18.414;2023-07-31T07:52:00;3.40;;;2.17;;
68192;SDS011;55012;47.562;18.414;2023-07-31T07:54:26;5.13;;;2.30;;
68192;SDS011;55012;47.562;18.414;2023-07-31T07:56:52;4.55;;;2.20;;
68192;SDS011;55012;47.562;18.414;2023-07-31T07:59:17;5.45;;;2.20;;
68192;SDS011;55012;47.562;18.414;2023-07-31T08:01:43;8.23;;;2.30;;
68192;SDS011;55012;47.562;18.414;2023-07-31T08:04:08;4.43;;;2.10;;
68192;SDS011;55012;47.562;18.414;2023-07-31T08:06:34;3.20;;;1.95;;
68192;SDS011;55012;47.562;18.414;2023-07-31T08:08:59;4.50;;;2.20;;
68192;SDS011;55012;47.562;18.414;2023-07-31T08:11:30;6.05;;;2.15;;
68192;SDS011;55012;47.562;18.414;2023-07-31T08:13:55;5.13;;;2.25;;
68192;SDS011;55012;47.562;18.414;2023-07-31T08:16:21;3.63;;;2.35;;
68192;SDS011;55012;47.562;18.414;2023-07-31T08:18:46;4.97;;;2.05;;
68192;SDS011;55012;47.562;18.414;2023-07-31T08:21:12;3.75;;;2.17;;
68192;SDS011;55012;47.562;18.414;2023-07-31T08:23:37;5.00;;;2.22;;
68192;SDS011;55012;47.562;18.414;2023-07-31T08:26:03;6.57;;;2.22;;
68192;SDS011;55012;47.562;18.414;2023-07-31T08:28:28;4.00;;;2.00;;
68192;SDS011;55012;47.562;18.414;2023-07-31T08:30:53;3.50;;;2.00;;
68192;SDS011;55012;47.562;18.414;2023-07-31T08:33:19;3.33;;;2.00;;
68192;SDS011;55012;47.562;18.414;2023-07-31T08:35:44;5.32;;;2.20;;
68192;SDS011;55012;47.562;18.414;2023-07-31T08:38:10;2.53;;;1.85;;
68192;SDS011;55012;47.562;18.414;2023-07-31T08:40:37;2.47;;;1.70;;
68192;SDS011;55012;47.562;18.414;2023-07-31T08:43:03;3.53;;;2.20;;
68192;SDS011;55012;47.562;18.414;2023-07-31T08:45:29;2.95;;;2.00;;
68192;SDS011;55012;47.562;18.414;2023-07-31T08:47:56;5.75;;;2.28;;
68192;SDS011;55012;47.562;18.414;2023-07-31T08:50:22;4.20;;;2.10;;
68192;SDS011;55012;47.562;18.414;2023-07-31T08:52:48;4.43;;;2.15;;
68192;SDS011;55012;47.562;18.414;2023-07-31T08:55:15;3.05;;;2.10;;
68192;SDS011;55012;47.562;18.414;2023-07-31T08:57:41;3.15;;;1.88;;
68192;SDS011;55012;47.562;18.414;2023-07-31T09:00:08;4.63;;;1.98;;
68192;SDS011;55012;47.562;18.414;2023-07-31T09:02:37;4.10;;;2.05;;
68192;SDS011;55012;47.562;18.414;2023-07-31T09:05:21;3.85;;;2.00;;
68192;SDS011;55012;47.562;18.414;2023-07-31T09:07:47;5.45;;;2.17;;
68192;SDS011;55012;47.562;18.414;2023-07-31T09:10:14;3.17;;;1.80;;
68192;SDS011;55012;47.562;18.414;2023-07-31T09:12:40;3.42;;;1.63;;
68192;SDS011;55012;47.562;18.414;2023-07-31T09:15:05;3.97;;;2.00;;
68192;SDS011;55012;47.562;18.414;2023-07-31T09:17:32;4.18;;;2.00;;
68192;SDS011;55012;47.562;18.414;2023-07-31T09:22:44;3.30;;;1.50;;
68192;SDS011;55012;47.562;18.414;2023-07-31T09:27:56;2.38;;;1.60;;
68192;SDS011;55012;47.562;18.414;2023-07-31T09:30:23;2.95;;;1.52;;
68192;SDS011;55012;47.562;18.414;2023-07-31T09:32:49;3.50;;;1.75;;
68192;SDS011;55012;47.562;18.414;2023-07-31T09:37:53;2.60;;;1.70;;
68192;SDS011;55012;47.562;18.414;2023-07-31T09:40:29;4.88;;;1.60;;
68192;SDS011;55012;47.562;18.414;2023-07-31T09:43:02;4.03;;;1.60;;
68192;SDS011;55012;47.562;18.414;2023-07-31T09:45:29;4.97;;;1.58;;
68192;SDS011;55012;47.562;18.414;2023-07-31T09:47:55;3.33;;;1.50;;
68192;SDS011;55012;47.562;18.414;2023-07-31T09:50:22;3.58;;;1.58;;
68192;SDS011;55012;47.562;18.414;2023-07-31T09:52:50;4.25;;;1.60;;
68192;SDS011;55012;47.562;18.414;2023-07-31T09:55:18;2.95;;;1.30;;
68192;SDS011;55012;47.562;18.414;2023-07-31T09:57:45;4.53;;;1.52;;
68192;SDS011;55012;47.562;18.414;2023-07-31T10:00:12;5.50;;;1.60;;
68192;SDS011;55012;47.562;18.414;2023-07-31T10:02:39;3.47;;;1.90;;
68192;SDS011;55012;47.562;18.414;2023-07-31T10:05:05;1.80;;;1.38;;
68192;SDS011;55012;47.562;18.414;2023-07-31T10:07:36;3.35;;;1.40;;
68192;SDS011;55012;47.562;18.414;2023-07-31T10:10:04;2.42;;;1.38;;
68192;SDS011;55012;47.562;18.414;2023-07-31T10:12:30;1.95;;;1.30;;
68192;SDS011;55012;47.562;18.414;2023-07-31T10:14:57;4.40;;;1.50;;
68192;SDS011;55012;47.562;18.414;2023-07-31T10:17:25;2.58;;;1.48;;
68192;SDS011;55012;47.562;18.414;2023-07-31T10:19:51;4.28;;;1.50;;
68192;SDS011;55012;47.562;18.414;2023-07-31T10:22:19;2.80;;;1.38;;
68192;SDS011;55012;47.562;18.414;2023-07-31T10:24:45;3.35;;;1.50;;
68192;SDS011;55012;47.562;18.414;2023-07-31T10:27:11;2.33;;;1.20;;
68192;SDS011;55012;47.562;18.414;2023-07-31T10:29:37;3.20;;;1.50;;
68192;SDS011;55012;47.562;18.414;2023-07-31T10:32:05;4.03;;;1.48;;
68192;SDS011;55012;47.562;18.414;2023-07-31T10:34:35;3.58;;;1.30;;
68192;SDS011;55012;47.562;18.414;2023-07-31T10:39:54;3.85;;;1.50;;
68192;SDS011;55012;47.562;18.414;2023-07-31T10:44:52;4.07;;;1.48;;
68192;SDS011;55012;47.562;18.414;2023-07-31T10:47:22;4.65;;;1.90;;
68192;SDS011;55012;47.562;18.414;2023-07-31T10:49:48;2.67;;;1.42;;
68192;SDS011;55012;47.562;18.414;2023-07-31T10:52:14;3.00;;;1.27;;
68192;SDS011;55012;47.562;18.414;2023-07-31T10:54:48;3.20;;;1.20;;
68192;SDS011;55012;47.562;18.414;2023-07-31T10:57:23;3.30;;;1.30;;
68192;SDS011;55012;47.562;18.414;2023-07-31T10:59:50;2.47;;;1.50;;
68192;SDS011;55012;47.562;18.414;2023-07-31T11:02:25;4.20;;;1.40;;
68192;SDS011;55012;47.562;18.414;2023-07-31T11:05:08;5.07;;;1.20;;
68192;SDS011;55012;47.562;18.414;2023-07-31T11:07:50;3.30;;;1.50;;
68192;SDS011;55012;47.562;18.414;2023-07-31T11:10:16;4.70;;;1.38;;
68192;SDS011;55012;47.562;18.414;2023-07-31T11:12:42;2.53;;;1.40;;
68192;SDS011;55012;47.562;18.414;2023-07-31T11:15:08;3.10;;;1.30;;
68192;SDS011;55012;47.562;18.414;2023-07-31T11:17:37;4.32;;;1.33;;
68192;SDS011;55012;47.562;18.414;2023-07-31T11:20:04;2.47;;;1.38;;
68192;SDS011;55012;47.562;18.414;2023-07-31T11:22:30;2.90;;;1.60;;
68192;SDS011;55012;47.562;18.414;2023-07-31T11:24:55;2.67;;;1.60;;
68192;SDS011;55012;47.562;18.414;2023-07-31T11:27:21;4.10;;;1.50;;
68192;SDS011;55012;47.562;18.414;2023-07-31T11:29:46;3.17;;;1.40;;
68192;SDS011;55012;47.562;18.414;2023-07-31T11:32:16;3.17;;;1.50;;
68192;SDS011;55012;47.562;18.414;2023-07-31T11:34:52;4.05;;;1.60;;
68192;SDS011;55012;47.562;18.414;2023-07-31T11:37:18;4.97;;;1.67;;
68192;SDS011;55012;47.562;18.414;2023-07-31T11:39:43;4.47;;;1.70;;
68192;SDS011;55012;47.562;18.414;2023-07-31T11:42:26;5.68;;;1.70;;
68192;SDS011;55012;47.562;18.414;2023-07-31T11:44:52;4.03;;;1.58;;
68192;SDS011;55012;47.562;18.414;2023-07-31T11:47:17;3.17;;;1.60;;
68192;SDS011;55012;47.562;18.414;2023-07-31T11:49:43;3.05;;;1.55;;
68192;SDS011;55012;47.562;18.414;2023-07-31T11:52:09;2.88;;;1.60;;
68192;SDS011;55012;47.562;18.414;2023-07-31T11:54:36;5.18;;;1.60;;
68192;SDS011;55012;47.562;18.414;2023-07-31T11:57:01;3.13;;;1.50;;
68192;SDS011;55012;47.562;18.414;2023-07-31T11:59:28;4.10;;;1.73;;
68192;SDS011;55012;47.562;18.414;2023-07-31T12:01:54;2.00;;;1.40;;
68192;SDS011;55012;47.562;18.414;2023-07-31T12:04:19;3.83;;;1.80;;
68192;SDS011;55012;47.562;18.414;2023-07-31T12:06:47;3.00;;;1.48;;
68192;SDS011;55012;47.562;18.414;2023-07-31T12:09:15;4.80;;;1.40;;
68192;SDS011;55012;47.562;18.414;2023-07-31T12:11:46;3.08;;;1.60;;
68192;SDS011;55012;47.562;18.414;2023-07-31T12:14:23;5.25;;;1.60;;
68192;SDS011;55012;47.562;18.414;2023-07-31T12:16:56;2.83;;;1.50;;
68192;SDS011;55012;47.562;18.414;2023-07-31T12:19:24;5.45;;;1.60;;
68192;SDS011;55012;47.562;18.414;2023-07-31T12:21:55;3.35;;;1.70;;
68192;SDS011;55012;47.562;18.414;2023-07-31T12:24:21;3.78;;;1.58;;
68192;SDS011;55012;47.562;18.414;2023-07-31T12:26:48;2.40;;;1.70;;
68192;SDS011;55012;47.562;18.414;2023-07-31T12:29:14;3.45;;;1.60;;
68192;SDS011;55012;47.562;18.414;2023-07-31T12:31:40;3.08;;;1.52;;
68192;SDS011;55012;47.562;18.414;2023-07-31T12:34:16;3.80;;;1.40;;
68192;SDS011;55012;47.562;18.414;2023-07-31T12:36:43;5.72;;;1.98;;
68192;SDS011;55012;47.562;18.414;2023-07-31T12:39:09;2.28;;;1.33;;
68192;SDS011;55012;47.562;18.414;2023-07-31T12:41:35;3.65;;;1.52;;
68192;SDS011;55012;47.562;18.414;2023-07-31T12:44:00;2.78;;;1.55;;
68192;SDS011;55012;47.562;18.414;2023-07-31T12:46:26;2.63;;;1.60;;
68192;SDS011;55012;47.562;18.414;2023-07-31T12:48:51;2.63;;;1.50;;
68192;SDS011;55012;47.562;18.414;2023-07-31T12:51:17;2.78;;;1.50;;
68192;SDS011;55012;47.562;18.414;2023-07-31T12:53:42;5.38;;;1.70;;
68192;SDS011;55012;47.562;18.414;2023-07-31T12:56:08;4.47;;;1.60;;
68192;SDS011;55012;47.562;18.414;2023-07-31T12:58:33;4.43;;;1.45;;
68192;SDS011;55012;47.562;18.414;2023-07-31T13:00:59;5.38;;;1.65;;
68192;SDS011;55012;47.562;18.414;2023-07-31T13:03:24;2.50;;;1.67;;
68192;SDS011;55012;47.562;18.414;2023-07-31T13:05:50;3.08;;;1.67;;
68192;SDS011;55012;47.562;18.414;2023-07-31T13:08:16;3.22;;;1.67;;
68192;SDS011;55012;47.562;18.414;2023-07-31T13:10:42;3.60;;;1.60;;
68192;SDS011;55012;47.562;18.414;2023-07-31T13:13:09;4.10;;;1.52;;
68192;SDS011;55012;47.562;18.414;2023-07-31T13:15:35;3.42;;;1.42;;
68192;SDS011;55012;47.562;18.414;2023-07-31T13:18:00;3.75;;;1.63;;
68192;SDS011;55012;47.562;18.414;2023-07-31T13:20:26;2.78;;;1.50;;
68192;SDS011;55012;47.562;18.414;2023-07-31T13:22:51;2.55;;;1.40;;
68192;SDS011;55012;47.562;18.414;2023-07-31T13:25:17;3.70;;;1.58;;
68192;SDS011;55012;47.562;18.414;2023-07-31T13:27:42;3.78;;;1.75;;
68192;SDS011;55012;47.562;18.414;2023-07-31T13:30:08;2.88;;;1.40;;
68192;SDS011;55012;47.562;18.414;2023-07-31T13:32:33;3.05;;;1.42;;
68192;SDS011;55012;47.562;18.414;2023-07-31T13:35:03;5.22;;;1.50;;
68192;SDS011;55012;47.562;18.414;2023-07-31T13:37:30;3.03;;;1.40;;
68192;SDS011;55012;47.562;18.414;2023-07-31T13:39:56;2.90;;;1.50;;
68192;SDS011;55012;47.562;18.414;2023-07-31T13:42:21;4.95;;;1.50;;
68192;SDS011;55012;47.562;18.414;2023-07-31T13:44:47;3.00;;;1.52;;
68192;SDS011;55012;47.562;18.414;2023-07-31T13:47:12;3.90;;;1.50;;
68192;SDS011;55012;47.562;18.414;2023-07-31T13:49:38;4.00;;;1.40;;
68192;SDS011;55012;47.562;18.414;2023-07-31T13:52:04;2.88;;;1.38;;
68192;SDS011;55012;47.562;18.414;2023-07-31T13:54:30;3.33;;;1.30;;
68192;SDS011;55012;47.562;18.414;2023-07-31T13:56:55;2.92;;;1.30;;
68192;SDS011;55012;47.562;18.414;2023-07-31T13:59:21;2.63;;;1.45;;
68192;SDS011;55012;47.562;18.414;2023-07-31T14:01:47;3.17;;;1.60;;
68192;SDS011;55012;47.562;18.414;2023-07-31T14:04:13;2.58;;;1.35;;
68192;SDS011;55012;47.562;18.414;2023-07-31T14:06:38;2.75;;;1.50;;
68192;SDS011;55012;47.562;18.414;2023-07-31T14:09:04;1.75;;;1.40;;
68192;SDS011;55012;47.562;18.414;2023-07-31T14:11:32;3.58;;;1.60;;
68192;SDS011;55012;47.562;18.414;2023-07-31T14:13:58;1.42;;;1.20;;
68192;SDS011;55012;47.562;18.414;2023-07-31T14:16:24;3.13;;;1.40;;
68192;SDS011;55012;47.562;18.414;2023-07-31T14:18:50;3.42;;;1.40;;
68192;SDS011;55012;47.562;18.414;2023-07-31T14:21:15;4.53;;;1.60;;
68192;SDS011;55012;47.562;18.414;2023-07-31T14:23:41;4.05;;;1.42;;
68192;SDS011;55012;47.562;18.414;2023-07-31T14:26:07;3.33;;;1.40;;
68192;SDS011;55012;47.562;18.414;2023-07-31T14:28:33;2.70;;;1.48;;
68192;SDS011;55012;47.562;18.414;2023-07-31T14:30:58;3.05;;;1.30;;
68192;SDS011;55012;47.562;18.414;2023-07-31T14:33:24;2.65;;;1.40;;
68192;SDS011;55012;47.562;18.414;2023-07-31T14:35:49;2.85;;;1.50;;
68192;SDS011;55012;47.562;18.414;2023-07-31T14:38:15;2.47;;;1.50;;
68192;SDS011;55012;47.562;18.414;2023-07-31T14:40:41;2.33;;;1.50;;
68192;SDS011;55012;47.562;18.414;2023-07-31T14:43:07;3.60;;;1.30;;
68192;SDS011;55012;47.562;18.414;2023-07-31T14:45:32;2.90;;;1.50;;
68192;SDS011;55012;47.562;18.414;2023-07-31T14:47:58;4.90;;;1.60;;
68192;SDS011;55012;47.562;18.414;2023-07-31T14:50:23;1.90;;;1.33;;
68192;SDS011;55012;47.562;18.414;2023-07-31T14:52:50;3.08;;;1.30;;